createdAt,value
2016-08-28T00:00:56.011Z,25.83
2016-08-28T00:01:55.827Z,25.91
2016-08-28T00:02:55.849Z,25.85
2016-08-28T00:03:55.877Z,25.81
2016-08-28T00:04:55.902Z,25.8
2016-08-28T00:05:55.939Z,25.72
2016-08-28T00:06:55.961Z,25.73
2016-08-28T00:07:55.991Z,25.72
2016-08-28T00:08:56.020Z,25.66
2016-08-28T00:09:56.053Z,25.66
2016-08-28T00:10:56.080Z,25.66
2016-08-28T00:11:56.109Z,25.7
2016-08-28T00:12:56.147Z,25.7
2016-08-28T00:13:56.172Z,25.63
2016-08-28T00:14:56.313Z,25.63
2016-08-28T00:15:56.317Z,25.55
2016-08-28T00:16:56.343Z,25.55
2016-08-28T00:17:56.399Z,25.62
2016-08-28T00:18:56.536Z,25.6
2016-08-28T00:19:56.549Z,25.53
2016-08-28T00:20:56.563Z,25.54
2016-08-28T00:21:56.591Z,25.53
2016-08-28T00:22:56.608Z,25.44
2016-08-28T00:23:56.617Z,25.46
2016-08-28T00:24:56.623Z,25.41
2016-08-28T00:25:56.623Z,25.47
2016-08-28T00:26:56.633Z,25.43
2016-08-28T00:27:56.697Z,25.41
2016-08-28T00:28:56.709Z,25.38
2016-08-28T00:29:56.724Z,25.33
2016-08-28T00:30:56.726Z,25.32
2016-08-28T00:31:56.744Z,25.31
2016-08-28T00:32:56.824Z,25.26
2016-08-28T00:33:56.754Z,25.26
2016-08-28T00:34:56.780Z,25.29
2016-08-28T00:35:56.813Z,25.26
2016-08-28T00:36:56.838Z,25.17
2016-08-28T00:37:56.873Z,25.14
2016-08-28T00:38:56.918Z,25.22
2016-08-28T00:39:56.930Z,25.13
2016-08-28T00:40:56.959Z,25.1
2016-08-28T00:41:56.989Z,25.13
2016-08-28T00:42:57.023Z,25.14
2016-08-28T00:43:57.047Z,25.08
2016-08-28T00:44:57.076Z,25.14
2016-08-28T00:45:57.105Z,25.11
2016-08-28T00:46:57.136Z,25.1
2016-08-28T00:47:57.159Z,24.99
2016-08-28T00:48:57.193Z,25.03
2016-08-28T00:49:57.222Z,24.95
2016-08-28T00:50:57.250Z,25.07
2016-08-28T00:51:57.278Z,24.98
2016-08-28T00:52:57.310Z,24.93
2016-08-28T00:53:57.388Z,24.96
2016-08-28T00:54:57.365Z,24.85
2016-08-28T00:55:57.395Z,25.01
2016-08-28T00:56:57.429Z,24.86
2016-08-28T00:57:57.506Z,24.85
2016-08-28T00:58:57.483Z,24.91
2016-08-28T00:59:57.510Z,24.81
2016-08-28T01:00:57.539Z,24.84
2016-08-28T01:01:57.569Z,24.74
2016-08-28T01:02:57.597Z,24.76
2016-08-28T01:03:57.627Z,24.81
2016-08-28T01:04:57.652Z,24.74
2016-08-28T01:05:57.684Z,24.76
2016-08-28T01:06:57.712Z,24.7
2016-08-28T01:07:57.748Z,24.69
2016-08-28T01:08:57.817Z,24.68
2016-08-28T01:09:57.798Z,24.7
2016-08-28T01:10:57.826Z,24.68
2016-08-28T01:11:57.853Z,24.68
2016-08-28T01:12:57.888Z,24.6
2016-08-28T01:13:57.911Z,24.66
2016-08-28T01:14:57.939Z,24.65
2016-08-28T01:15:57.966Z,24.54
2016-08-28T01:16:57.993Z,24.58
2016-08-28T01:17:58.021Z,24.5
2016-08-28T01:18:58.054Z,24.5
2016-08-28T01:19:58.080Z,24.47
2016-08-28T01:20:58.112Z,24.57
2016-08-28T01:21:58.191Z,24.53
2016-08-28T01:22:58.169Z,24.51
2016-08-28T01:23:58.196Z,24.48
2016-08-28T01:24:58.224Z,24.42
2016-08-28T01:25:58.255Z,24.47
2016-08-28T01:26:58.283Z,24.5
2016-08-28T01:27:58.319Z,24.35
2016-08-28T01:28:58.337Z,24.4
2016-08-28T01:29:58.366Z,24.45
2016-08-28T01:30:58.440Z,24.43
2016-08-28T01:31:58.425Z,24.33
2016-08-28T01:32:58.454Z,24.33
2016-08-28T01:33:58.480Z,24.32
2016-08-28T01:34:58.506Z,24.29
2016-08-28T01:35:58.537Z,24.26
2016-08-28T01:36:58.564Z,24.28
2016-08-28T01:37:58.598Z,24.28
2016-08-28T01:38:58.618Z,24.23
2016-08-28T01:39:58.651Z,24.26
2016-08-28T01:40:58.681Z,24.21
2016-08-28T01:41:58.704Z,24.16
2016-08-28T01:42:58.736Z,24.2
2016-08-28T01:43:58.759Z,24.14
2016-08-28T01:44:58.797Z,24.16
2016-08-28T01:45:58.814Z,24.11
2016-08-28T01:46:58.847Z,24.1
2016-08-28T01:47:58.873Z,24.01
2016-08-28T01:48:58.907Z,24.03
2016-08-28T01:49:58.928Z,24.06
2016-08-28T01:50:58.976Z,24.02
2016-08-28T01:51:58.988Z,23.99
2016-08-28T01:52:59.722Z,23.91
2016-08-28T01:53:59.047Z,23.91
2016-08-28T01:54:59.072Z,23.91
2016-08-28T01:55:59.106Z,23.93
2016-08-28T01:56:59.128Z,23.93
2016-08-28T01:57:59.157Z,23.93
2016-08-28T01:58:59.179Z,23.93
2016-08-28T01:59:59.210Z,23.86
2016-08-28T02:00:59.240Z,23.87
2016-08-28T02:01:59.265Z,23.91
2016-08-28T02:02:59.292Z,23.87
2016-08-28T02:03:59.323Z,23.84
2016-08-28T02:04:59.350Z,23.81
2016-08-28T02:05:59.384Z,23.81
2016-08-28T02:06:59.407Z,23.74
2016-08-28T02:07:59.436Z,23.77
2016-08-28T02:08:59.466Z,23.74
2016-08-28T02:09:59.494Z,23.69
2016-08-28T02:10:59.520Z,23.74
2016-08-28T02:11:59.550Z,23.65
2016-08-28T02:12:59.590Z,23.74
2016-08-28T02:13:59.610Z,23.76
2016-08-28T02:14:59.631Z,23.71
2016-08-28T02:15:59.656Z,23.69
2016-08-28T02:16:59.689Z,23.69
2016-08-28T02:17:59.763Z,23.69
2016-08-28T02:18:59.739Z,23.68
2016-08-28T02:19:59.772Z,23.73
2016-08-28T02:20:59.797Z,23.69
2016-08-28T02:21:59.827Z,23.69
2016-08-28T02:22:59.852Z,23.63
2016-08-28T02:23:59.882Z,23.63
2016-08-28T02:24:59.933Z,23.65
2016-08-28T02:25:59.936Z,23.63
2016-08-28T02:26:59.968Z,23.55
2016-08-28T02:27:59.995Z,23.59
2016-08-28T02:29:00.021Z,23.54
2016-08-28T02:30:00.061Z,23.55
2016-08-28T02:31:00.075Z,23.54
2016-08-28T02:32:00.101Z,23.56
2016-08-28T02:33:00.134Z,23.46
2016-08-28T02:34:00.159Z,23.5
2016-08-28T02:35:00.208Z,23.44
2016-08-28T02:36:00.211Z,23.48
2016-08-28T02:37:00.247Z,23.47
2016-08-28T02:38:00.276Z,23.51
2016-08-28T02:39:00.296Z,23.47
2016-08-28T02:40:00.322Z,23.37
2016-08-28T02:41:00.362Z,23.41
2016-08-28T02:42:00.378Z,23.37
2016-08-28T02:43:00.405Z,23.37
2016-08-28T02:44:00.440Z,23.36
2016-08-28T02:45:00.457Z,23.34
2016-08-28T02:46:00.498Z,23.27
2016-08-28T02:47:00.514Z,23.27
2016-08-28T02:48:00.542Z,23.4
2016-08-28T02:49:00.572Z,23.28
2016-08-28T02:50:00.599Z,23.27
2016-08-28T02:51:00.627Z,23.28
2016-08-28T02:52:00.661Z,23.23
2016-08-28T02:53:00.681Z,23.21
2016-08-28T02:54:00.721Z,23.36
2016-08-28T02:55:00.736Z,23.25
2016-08-28T02:56:00.763Z,23.27
2016-08-28T02:57:00.791Z,23.24
2016-08-28T02:58:00.824Z,23.24
2016-08-28T02:59:00.852Z,23.24
2016-08-28T03:00:00.932Z,23.25
2016-08-28T03:01:00.901Z,23.24
2016-08-28T03:02:00.930Z,23.24
2016-08-28T03:03:00.962Z,23.17
2016-08-28T03:04:00.987Z,23.23
2016-08-28T03:05:01.009Z,23.23
2016-08-28T03:06:01.045Z,23.18
2016-08-28T03:07:01.063Z,23.21
2016-08-28T03:08:01.092Z,23.17
2016-08-28T03:09:01.172Z,23.13
2016-08-28T03:10:01.146Z,23.2
2016-08-28T03:11:01.176Z,23.1
2016-08-28T03:12:01.208Z,23.09
2016-08-28T03:13:01.236Z,23.1
2016-08-28T03:14:01.257Z,23.17
2016-08-28T03:15:01.284Z,23.18
2016-08-28T03:16:01.314Z,23.05
2016-08-28T03:17:01.334Z,23.06
2016-08-28T03:18:01.369Z,23
2016-08-28T03:19:01.391Z,23.03
2016-08-28T03:20:01.420Z,23.1
2016-08-28T03:21:01.446Z,22.94
2016-08-28T03:22:01.474Z,22.98
2016-08-28T03:23:01.508Z,23
2016-08-28T03:24:01.536Z,23
2016-08-28T03:25:01.557Z,22.98
2016-08-28T03:26:01.586Z,22.99
2016-08-28T03:27:01.608Z,22.96
2016-08-28T03:28:01.640Z,22.96
2016-08-28T03:29:01.661Z,22.94
2016-08-28T03:30:01.687Z,22.91
2016-08-28T03:31:01.726Z,22.9
2016-08-28T03:32:01.890Z,22.9
2016-08-28T03:33:01.867Z,22.85
2016-08-28T03:34:01.899Z,22.91
2016-08-28T03:35:01.908Z,22.83
2016-08-28T03:36:01.917Z,22.8
2016-08-28T03:37:01.926Z,22.84
2016-08-28T03:38:01.925Z,22.83
2016-08-28T03:39:01.935Z,22.78
2016-08-28T03:40:02.080Z,22.84
2016-08-28T03:41:02.010Z,22.88
2016-08-28T03:42:02.015Z,22.84
2016-08-28T03:43:02.137Z,22.81
2016-08-28T03:44:02.145Z,22.81
2016-08-28T03:45:02.177Z,22.7
2016-08-28T03:46:02.186Z,22.87
2016-08-28T03:47:02.184Z,22.7
2016-08-28T03:48:02.193Z,22.7
2016-08-28T03:49:02.206Z,22.7
2016-08-28T03:50:02.236Z,22.66
2016-08-28T03:51:02.257Z,22.7
2016-08-28T03:52:02.284Z,22.66
2016-08-28T03:53:02.312Z,22.72
2016-08-28T03:54:02.348Z,22.69
2016-08-28T03:55:02.367Z,22.68
2016-08-28T03:56:02.423Z,22.69
2016-08-28T03:57:02.426Z,22.6
2016-08-28T03:58:02.447Z,22.59
2016-08-28T03:59:02.469Z,22.69
2016-08-28T04:00:02.501Z,22.59
2016-08-28T04:01:02.529Z,22.57
2016-08-28T04:02:02.639Z,22.59
2016-08-28T04:03:02.593Z,22.65
2016-08-28T04:04:02.623Z,22.59
2016-08-28T04:05:02.638Z,22.55
2016-08-28T04:06:02.660Z,22.63
2016-08-28T04:07:02.690Z,22.62
2016-08-28T04:08:02.717Z,22.55
2016-08-28T04:09:02.777Z,22.54
2016-08-28T04:10:02.788Z,22.55
2016-08-28T04:11:02.794Z,22.57
2016-08-28T04:12:02.883Z,22.5
2016-08-28T04:13:02.851Z,22.51
2016-08-28T04:14:02.876Z,22.53
2016-08-28T04:15:02.901Z,22.51
2016-08-28T04:16:02.938Z,22.44
2016-08-28T04:17:02.961Z,22.45
2016-08-28T04:18:03.003Z,22.5
2016-08-28T04:19:03.011Z,22.53
2016-08-28T04:20:03.045Z,22.53
2016-08-28T04:21:03.064Z,22.48
2016-08-28T04:22:03.310Z,22.6
2016-08-28T04:23:03.289Z,22.55
2016-08-28T04:24:03.248Z,22.54
2016-08-28T04:25:03.242Z,22.44
2016-08-28T04:26:03.274Z,22.6
2016-08-28T04:27:03.271Z,22.59
2016-08-28T04:28:03.279Z,22.39
2016-08-28T04:29:03.290Z,22.57
2016-08-28T04:30:03.301Z,22.53
2016-08-28T04:31:03.331Z,22.5
2016-08-28T04:32:03.377Z,22.48
2016-08-28T04:33:03.385Z,22.51
2016-08-28T04:34:03.434Z,22.5
2016-08-28T04:35:03.435Z,22.47
2016-08-28T04:36:03.464Z,22.43
2016-08-28T04:37:03.491Z,22.48
2016-08-28T04:38:03.520Z,22.5
2016-08-28T04:39:03.543Z,22.44
2016-08-28T04:40:03.707Z,22.47
2016-08-28T04:41:03.607Z,22.48
2016-08-28T04:42:03.695Z,22.43
2016-08-28T04:43:03.651Z,22.47
2016-08-28T04:44:03.678Z,22.47
2016-08-28T04:45:03.706Z,22.38
2016-08-28T04:46:03.732Z,22.45
2016-08-28T04:47:03.755Z,22.38
2016-08-28T04:48:03.789Z,22.43
2016-08-28T04:49:03.810Z,22.45
2016-08-28T04:50:03.838Z,22.41
2016-08-28T04:51:03.864Z,22.41
2016-08-28T04:52:03.889Z,22.39
2016-08-28T04:53:03.919Z,22.38
2016-08-28T04:54:03.939Z,22.35
2016-08-28T04:55:03.971Z,22.39
2016-08-28T04:56:03.996Z,22.36
2016-08-28T04:57:04.021Z,22.36
2016-08-28T04:58:04.057Z,22.43
2016-08-28T04:59:04.081Z,22.35
2016-08-28T05:00:04.109Z,22.38
2016-08-28T05:01:04.131Z,22.29
2016-08-28T05:02:04.155Z,22.35
2016-08-28T05:03:04.187Z,22.41
2016-08-28T05:04:04.208Z,22.36
2016-08-28T05:05:04.234Z,22.36
2016-08-28T05:06:04.263Z,22.35
2016-08-28T05:07:04.290Z,22.32
2016-08-28T05:08:04.320Z,22.32
2016-08-28T05:09:04.345Z,22.3
2016-08-28T05:10:04.367Z,22.3
2016-08-28T05:11:04.398Z,22.3
2016-08-28T05:12:04.424Z,22.35
2016-08-28T05:13:04.565Z,22.35
2016-08-28T05:14:04.476Z,22.32
2016-08-28T05:15:04.498Z,22.3
2016-08-28T05:16:04.525Z,22.36
2016-08-28T05:17:04.559Z,22.35
2016-08-28T05:18:04.582Z,22.33
2016-08-28T05:19:04.606Z,22.35
2016-08-28T05:20:04.765Z,22.35
2016-08-28T05:21:04.663Z,22.32
2016-08-28T05:22:04.701Z,22.32
2016-08-28T05:23:04.719Z,22.35
2016-08-28T05:24:04.741Z,22.41
2016-08-28T05:25:04.761Z,22.36
2016-08-28T05:26:04.790Z,22.44
2016-08-28T05:27:04.957Z,22.32
2016-08-28T05:28:04.977Z,22.35
2016-08-28T05:29:04.869Z,22.33
2016-08-28T05:30:04.899Z,22.36
2016-08-28T05:31:04.922Z,22.39
2016-08-28T05:32:04.955Z,22.39
2016-08-28T05:33:04.974Z,22.35
2016-08-28T05:34:05.009Z,22.39
2016-08-28T05:35:05.025Z,22.36
2016-08-28T05:36:05.088Z,22.36
2016-08-28T05:37:05.078Z,22.43
2016-08-28T05:38:05.107Z,22.39
2016-08-28T05:39:05.134Z,22.35
2016-08-28T05:40:05.159Z,22.38
2016-08-28T05:41:05.235Z,22.38
2016-08-28T05:42:05.220Z,22.38
2016-08-28T05:43:05.237Z,22.43
2016-08-28T05:44:06.178Z,22.41
2016-08-28T05:45:05.339Z,22.45
2016-08-28T05:46:05.344Z,22.44
2016-08-28T05:47:05.467Z,22.36
2016-08-28T05:48:05.385Z,22.5
2016-08-28T05:49:05.396Z,22.36
2016-08-28T05:50:05.441Z,22.43
2016-08-28T05:51:05.450Z,22.48
2016-08-28T05:52:05.472Z,22.43
2016-08-28T05:53:05.510Z,22.47
2016-08-28T05:54:05.532Z,22.53
2016-08-28T05:55:05.557Z,22.47
2016-08-28T05:56:05.595Z,22.45
2016-08-28T05:57:05.773Z,22.5
2016-08-28T05:58:05.652Z,22.51
2016-08-28T05:59:05.662Z,22.55
2016-08-28T06:00:05.693Z,22.45
2016-08-28T06:01:05.714Z,22.51
2016-08-28T06:02:05.739Z,22.5
2016-08-28T06:03:05.765Z,22.43
2016-08-28T06:04:05.803Z,22.51
2016-08-28T06:05:05.901Z,22.5
2016-08-28T06:06:05.958Z,22.47
2016-08-28T06:07:05.873Z,22.53
2016-08-28T06:08:06.009Z,22.51
2016-08-28T06:09:05.926Z,22.57
2016-08-28T06:10:05.948Z,22.59
2016-08-28T06:11:06.084Z,22.55
2016-08-28T06:12:06.008Z,22.59
2016-08-28T06:13:06.067Z,22.66
2016-08-28T06:14:06.063Z,22.68
2016-08-28T06:15:06.080Z,22.68
2016-08-28T06:16:06.130Z,22.69
2016-08-28T06:17:06.134Z,22.69
2016-08-28T06:18:06.174Z,22.7
2016-08-28T06:19:06.192Z,22.69
2016-08-28T06:20:06.267Z,22.84
2016-08-28T06:21:06.241Z,22.81
2016-08-28T06:22:06.273Z,22.76
2016-08-28T06:23:06.298Z,22.85
2016-08-28T06:24:06.322Z,22.84
2016-08-28T06:25:06.346Z,22.87
2016-08-28T06:26:06.377Z,22.88
2016-08-28T06:27:06.591Z,22.96
2016-08-28T06:28:06.429Z,22.96
2016-08-28T06:29:06.454Z,23.05
2016-08-28T06:30:06.488Z,22.99
2016-08-28T06:31:06.505Z,23.03
2016-08-28T06:32:06.531Z,22.99
2016-08-28T06:33:07.283Z,23.13
2016-08-28T06:34:06.586Z,23.15
2016-08-28T06:35:06.611Z,23.23
2016-08-28T06:36:06.646Z,23.23
2016-08-28T06:37:06.718Z,23.27
2016-08-28T06:38:06.694Z,23.25
2016-08-28T06:39:06.719Z,23.28
2016-08-28T06:40:06.753Z,23.25
2016-08-28T06:41:06.779Z,23.4
2016-08-28T06:42:06.797Z,23.41
2016-08-28T06:43:06.883Z,23.5
2016-08-28T06:44:06.854Z,23.48
2016-08-28T06:45:06.879Z,23.55
2016-08-28T06:46:06.906Z,23.55
2016-08-28T06:47:06.929Z,23.55
2016-08-28T06:48:06.958Z,23.71
2016-08-28T06:49:06.984Z,23.73
2016-08-28T06:50:07.016Z,23.68
2016-08-28T06:51:07.037Z,23.77
2016-08-28T06:52:07.065Z,23.81
2016-08-28T06:53:07.094Z,23.76
2016-08-28T06:54:07.121Z,23.81
2016-08-28T06:55:07.147Z,23.91
2016-08-28T06:56:07.172Z,23.96
2016-08-28T06:57:07.206Z,23.93
2016-08-28T06:58:07.223Z,24.02
2016-08-28T06:59:07.254Z,24.02
2016-08-28T07:00:07.290Z,24.11
2016-08-28T07:01:07.302Z,24.17
2016-08-28T07:02:07.382Z,24.21
2016-08-28T07:03:07.360Z,24.33
2016-08-28T07:04:07.434Z,24.36
2016-08-28T07:05:07.465Z,24.47
2016-08-28T07:06:07.442Z,24.43
2016-08-28T07:07:07.469Z,24.42
2016-08-28T07:08:07.492Z,24.5
2016-08-28T07:09:07.520Z,24.54
2016-08-28T07:10:07.640Z,24.55
2016-08-28T07:11:07.578Z,24.68
2016-08-28T07:12:07.606Z,24.68
2016-08-28T07:13:07.629Z,24.77
2016-08-28T07:14:07.655Z,24.74
2016-08-28T07:15:07.693Z,24.81
2016-08-28T07:16:07.711Z,24.86
2016-08-28T07:17:07.742Z,24.85
2016-08-28T07:18:07.767Z,24.95
2016-08-28T07:19:07.790Z,25.08
2016-08-28T07:20:07.823Z,25.08
2016-08-28T07:21:07.856Z,25.1
2016-08-28T07:22:07.872Z,25.21
2016-08-28T07:23:07.901Z,25.22
2016-08-28T07:24:07.926Z,25.26
2016-08-28T07:25:07.954Z,25.38
2016-08-28T07:26:07.981Z,25.31
2016-08-28T07:27:08.010Z,25.44
2016-08-28T07:28:08.033Z,25.47
2016-08-28T07:29:08.115Z,25.44
2016-08-28T07:30:08.095Z,25.62
2016-08-28T07:31:08.119Z,25.59
2016-08-28T07:32:08.151Z,25.65
2016-08-28T07:33:08.175Z,25.66
2016-08-28T07:34:08.208Z,25.7
2016-08-28T07:35:08.228Z,25.8
2016-08-28T07:36:08.256Z,25.85
2016-08-28T07:37:08.294Z,25.95
2016-08-28T07:38:08.317Z,26.03
2016-08-28T07:39:08.338Z,25.93
2016-08-28T07:40:08.366Z,26.06
2016-08-28T07:41:08.393Z,26.1
2016-08-28T07:42:08.421Z,26.22
2016-08-28T07:43:08.450Z,26.22
2016-08-28T07:44:08.482Z,26.37
2016-08-28T07:45:08.509Z,26.31
2016-08-28T07:46:08.529Z,26.47
2016-08-28T07:47:08.559Z,26.47
2016-08-28T07:48:08.586Z,26.55
2016-08-28T07:49:08.666Z,26.6
2016-08-28T07:50:08.640Z,26.63
2016-08-28T07:51:08.674Z,26.78
2016-08-28T07:52:08.702Z,26.8
2016-08-28T07:53:08.726Z,26.88
2016-08-28T07:54:08.753Z,26.89
2016-08-28T07:55:08.790Z,26.95
2016-08-28T07:56:08.809Z,27.03
2016-08-28T07:57:08.838Z,27.02
2016-08-28T07:58:09.569Z,27.15
2016-08-28T07:59:08.891Z,27.32
2016-08-28T08:00:08.922Z,27.25
2016-08-28T08:01:08.950Z,27.4
2016-08-28T08:02:08.976Z,27.47
2016-08-28T08:03:09.007Z,27.52
2016-08-28T08:04:09.039Z,27.58
2016-08-28T08:05:09.079Z,27.59
2016-08-28T08:06:09.099Z,27.7
2016-08-28T08:07:09.119Z,27.8
2016-08-28T08:08:09.147Z,27.75
2016-08-28T08:09:09.177Z,27.86
2016-08-28T08:10:09.210Z,28.01
2016-08-28T08:11:09.231Z,28.05
2016-08-28T08:12:09.261Z,28.01
2016-08-28T08:13:09.288Z,28.1
2016-08-28T08:14:09.318Z,28.17
2016-08-28T08:15:09.348Z,28.26
2016-08-28T08:16:09.379Z,28.32
2016-08-28T08:17:09.410Z,28.39
2016-08-28T08:18:09.432Z,28.45
2016-08-28T08:19:09.460Z,28.44
2016-08-28T08:20:09.491Z,28.52
2016-08-28T08:21:09.516Z,28.66
2016-08-28T08:22:09.548Z,28.66
2016-08-28T08:23:09.581Z,28.75
2016-08-28T08:24:09.605Z,28.76
2016-08-28T08:25:09.681Z,28.81
2016-08-28T08:26:09.662Z,28.82
2016-08-28T08:27:09.691Z,29.01
2016-08-28T08:28:09.719Z,29.04
2016-08-28T08:29:09.752Z,29.05
2016-08-28T08:30:09.781Z,29.07
2016-08-28T08:31:09.807Z,29.16
2016-08-28T08:32:09.840Z,29.23
2016-08-28T08:33:09.914Z,29.26
2016-08-28T08:34:09.946Z,29.29
2016-08-28T08:35:09.927Z,29.34
2016-08-28T08:36:09.952Z,29.42
2016-08-28T08:37:09.982Z,29.51
2016-08-28T08:38:10.008Z,29.6
2016-08-28T08:39:10.045Z,29.59
2016-08-28T08:40:10.071Z,29.72
2016-08-28T08:41:10.106Z,29.73
2016-08-28T08:42:10.129Z,29.76
2016-08-28T08:43:10.156Z,29.94
2016-08-28T08:44:10.188Z,29.94
2016-08-28T08:45:10.216Z,29.98
2016-08-28T08:46:10.249Z,30.06
2016-08-28T08:47:10.278Z,30.05
2016-08-28T08:48:10.308Z,30.18
2016-08-28T08:49:10.338Z,30.27
2016-08-28T08:50:10.362Z,30.28
2016-08-28T08:51:10.396Z,30.34
2016-08-28T08:52:10.426Z,30.32
2016-08-28T08:53:10.457Z,30.48
2016-08-28T08:54:10.485Z,30.47
2016-08-28T08:55:10.528Z,30.51
2016-08-28T08:56:10.550Z,30.61
2016-08-28T08:57:10.576Z,30.66
2016-08-28T08:58:10.608Z,30.62
2016-08-28T08:59:10.632Z,30.81
2016-08-28T09:00:10.667Z,30.81
2016-08-28T09:01:10.699Z,30.88
2016-08-28T09:02:10.729Z,30.99
2016-08-28T09:03:10.759Z,31.06
2016-08-28T09:04:10.782Z,31.07
2016-08-28T09:05:10.816Z,31.25
2016-08-28T09:06:10.895Z,31.33
2016-08-28T09:07:10.896Z,31.37
2016-08-28T09:08:10.908Z,31.29
2016-08-28T09:09:10.939Z,31.43
2016-08-28T09:10:10.967Z,31.58
2016-08-28T09:11:10.997Z,31.59
2016-08-28T09:12:11.034Z,31.69
2016-08-28T09:13:11.061Z,31.69
2016-08-28T09:14:11.091Z,31.8
2016-08-28T09:15:11.119Z,31.9
2016-08-28T09:16:11.858Z,31.92
2016-08-28T09:17:11.182Z,31.99
2016-08-28T09:18:11.212Z,32.09
2016-08-28T09:19:11.246Z,32.14
2016-08-28T09:20:11.274Z,32.14
2016-08-28T09:21:11.305Z,32.22
2016-08-28T09:22:11.338Z,32.29
2016-08-28T09:23:11.364Z,32.29
2016-08-28T09:24:11.401Z,32.43
2016-08-28T09:25:11.434Z,32.48
2016-08-28T09:26:11.479Z,32.46
2016-08-28T09:27:11.494Z,32.6
2016-08-28T09:28:11.522Z,32.68
2016-08-28T09:29:11.554Z,32.68
2016-08-28T09:30:11.584Z,32.7
2016-08-28T09:31:11.616Z,32.8
2016-08-28T09:32:11.646Z,32.86
2016-08-28T09:33:11.681Z,32.95
2016-08-28T09:34:11.710Z,32.97
2016-08-28T09:35:11.739Z,33.04
2016-08-28T09:36:11.775Z,33.05
2016-08-28T09:37:11.853Z,33.15
2016-08-28T09:38:11.836Z,33.2
2016-08-28T09:39:11.870Z,33.31
2016-08-28T09:40:11.913Z,33.3
2016-08-28T09:41:11.932Z,33.32
2016-08-28T09:42:11.980Z,33.46
2016-08-28T09:43:12.703Z,33.47
2016-08-28T09:44:12.027Z,33.47
2016-08-28T09:45:12.058Z,33.58
2016-08-28T09:46:12.094Z,33.65
2016-08-28T09:47:12.121Z,33.68
2016-08-28T09:48:12.859Z,33.76
2016-08-28T09:49:12.182Z,33.8
2016-08-28T09:50:12.217Z,33.77
2016-08-28T09:51:12.258Z,33.9
2016-08-28T09:52:12.283Z,33.95
2016-08-28T09:53:12.312Z,33.94
2016-08-28T09:54:12.349Z,34.02
2016-08-28T09:55:12.378Z,34.08
2016-08-28T09:56:12.411Z,34.06
2016-08-28T09:57:12.566Z,34.16
2016-08-28T09:58:12.486Z,34.17
2016-08-28T09:59:12.508Z,34.29
2016-08-28T10:00:12.541Z,34.38
2016-08-28T10:01:12.570Z,34.45
2016-08-28T10:02:12.608Z,34.48
2016-08-28T10:03:12.639Z,34.58
2016-08-28T10:04:12.670Z,34.74
2016-08-28T10:05:12.706Z,34.75
2016-08-28T10:06:12.731Z,34.81
2016-08-28T10:07:12.770Z,34.9
2016-08-28T10:08:12.806Z,34.92
2016-08-28T10:09:12.833Z,35.05
2016-08-28T10:10:12.921Z,35.02
2016-08-28T10:11:12.900Z,35.15
2016-08-28T10:12:13.046Z,35.19
2016-08-28T10:13:12.962Z,35.34
2016-08-28T10:14:12.999Z,35.27
2016-08-28T10:15:13.034Z,35.34
2016-08-28T10:16:13.068Z,35.41
2016-08-28T10:17:13.121Z,35.46
2016-08-28T10:18:13.131Z,35.52
2016-08-28T10:19:13.162Z,35.58
2016-08-28T10:20:13.198Z,35.68
2016-08-28T10:21:13.933Z,35.85
2016-08-28T10:22:13.265Z,35.92
2016-08-28T10:23:13.418Z,35.89
2016-08-28T10:24:13.331Z,36.05
2016-08-28T10:25:13.363Z,36.07
2016-08-28T10:26:13.397Z,36.12
2016-08-28T10:27:13.546Z,36.24
2016-08-28T10:28:13.467Z,36.33
2016-08-28T10:29:13.511Z,36.46
2016-08-28T10:30:13.537Z,36.51
2016-08-28T10:31:13.567Z,36.57
2016-08-28T10:32:13.605Z,36.64
2016-08-28T10:33:13.637Z,36.72
2016-08-28T10:34:13.674Z,36.79
2016-08-28T10:35:13.704Z,36.86
2016-08-28T10:36:13.739Z,36.96
2016-08-28T10:37:13.768Z,36.95
2016-08-28T10:38:13.803Z,37.07
2016-08-28T10:39:13.838Z,37.14
2016-08-28T10:40:13.871Z,37.23
2016-08-28T10:41:13.910Z,37.28
2016-08-28T10:42:13.948Z,37.18
2016-08-28T10:43:13.974Z,37.37
2016-08-28T10:44:14.010Z,37.36
2016-08-28T10:45:14.044Z,37.47
2016-08-28T10:46:14.077Z,37.36
2016-08-28T10:47:14.112Z,37.58
2016-08-28T10:48:14.147Z,37.51
2016-08-28T10:49:14.182Z,37.58
2016-08-28T10:50:14.218Z,37.67
2016-08-28T10:51:14.249Z,37.68
2016-08-28T10:52:14.282Z,37.71
2016-08-28T10:53:14.329Z,37.8
2016-08-28T10:54:14.444Z,37.78
2016-08-28T10:55:14.591Z,37.8
2016-08-28T10:56:14.427Z,37.93
2016-08-28T10:57:14.458Z,37.93
2016-08-28T10:58:14.495Z,38.06
2016-08-28T10:59:14.522Z,38.08
2016-08-28T11:00:14.577Z,38.15
2016-08-28T11:01:14.601Z,38.2
2016-08-28T11:02:14.637Z,38.26
2016-08-28T11:03:14.670Z,38.26
2016-08-28T11:04:14.704Z,38.33
2016-08-28T11:05:14.735Z,38.46
2016-08-28T11:06:14.775Z,38.42
2016-08-28T11:07:14.855Z,38.4
2016-08-28T11:08:14.847Z,38.5
2016-08-28T11:09:14.882Z,38.46
2016-08-28T11:10:14.915Z,38.52
2016-08-28T11:11:14.950Z,38.48
2016-08-28T11:12:14.982Z,38.6
2016-08-28T11:13:15.020Z,38.67
2016-08-28T11:14:15.055Z,38.73
2016-08-28T11:15:15.090Z,38.83
2016-08-28T11:16:15.126Z,38.84
2016-08-28T11:17:15.159Z,38.91
2016-08-28T11:18:15.214Z,38.91
2016-08-28T11:19:15.231Z,38.96
2016-08-28T11:20:15.269Z,38.96
2016-08-28T11:21:15.427Z,39.11
2016-08-28T11:22:15.348Z,39.17
2016-08-28T11:23:15.383Z,39.14
2016-08-28T11:24:15.420Z,39.25
2016-08-28T11:25:15.446Z,39.17
2016-08-28T11:26:15.483Z,39.24
2016-08-28T11:27:15.524Z,39.36
2016-08-28T11:28:15.677Z,39.31
2016-08-28T11:29:16.385Z,39.31
2016-08-28T11:30:15.689Z,39.4
2016-08-28T11:31:15.955Z,39.38
2016-08-28T11:32:16.307Z,39.44
2016-08-28T11:33:16.313Z,39.46
2016-08-28T11:34:16.114Z,39.52
2016-08-28T11:35:15.808Z,39.48
2016-08-28T11:36:15.844Z,39.59
2016-08-28T11:37:15.882Z,39.62
2016-08-28T11:38:15.945Z,39.68
2016-08-28T11:39:15.973Z,39.67
2016-08-28T11:40:15.990Z,39.59
2016-08-28T11:41:16.072Z,39.62
2016-08-28T11:42:16.072Z,39.72
2016-08-28T11:43:16.107Z,39.68
2016-08-28T11:44:16.136Z,39.63
2016-08-28T11:45:16.169Z,39.78
2016-08-28T11:46:16.211Z,39.72
2016-08-28T11:47:16.249Z,39.74
2016-08-28T11:48:16.281Z,39.87
2016-08-28T11:49:16.368Z,39.81
2016-08-28T11:50:16.359Z,39.89
2016-08-28T11:51:16.401Z,39.94
2016-08-28T11:52:16.435Z,39.94
2016-08-28T11:53:16.465Z,40.04
2016-08-28T11:54:16.505Z,40.05
2016-08-28T11:55:16.562Z,40.08
2016-08-28T11:56:16.627Z,40.11
2016-08-28T11:57:16.609Z,40.15
2016-08-28T11:58:16.647Z,40.15
2016-08-28T11:59:16.732Z,40.26
2016-08-28T12:00:16.720Z,40.26
2016-08-28T12:01:16.766Z,40.3
2016-08-28T12:02:16.868Z,40.3
2016-08-28T12:03:16.830Z,40.38
2016-08-28T12:04:16.871Z,40.51
2016-08-28T12:05:16.903Z,40.51
2016-08-28T12:06:16.949Z,40.59
2016-08-28T12:07:16.977Z,40.59
2016-08-28T12:08:17.015Z,40.68
2016-08-28T12:09:17.052Z,40.69
2016-08-28T12:10:17.136Z,40.66
2016-08-28T12:11:17.129Z,40.73
2016-08-28T12:12:17.166Z,40.82
2016-08-28T12:13:17.205Z,40.84
2016-08-28T12:14:17.239Z,40.87
2016-08-28T12:15:17.271Z,40.88
2016-08-28T12:16:17.316Z,40.87
2016-08-28T12:17:17.347Z,40.9
2016-08-28T12:18:17.387Z,40.9
2016-08-28T12:19:17.423Z,40.91
2016-08-28T12:20:17.457Z,40.95
2016-08-28T12:21:17.501Z,40.99
2016-08-28T12:22:17.534Z,41.1
2016-08-28T12:23:17.575Z,41.1
2016-08-28T12:24:17.607Z,41.12
2016-08-28T12:25:17.649Z,41.21
2016-08-28T12:26:17.691Z,41.22
2016-08-28T12:27:17.722Z,41.25
2016-08-28T12:28:17.760Z,41.36
2016-08-28T12:29:17.808Z,41.37
2016-08-28T12:30:17.829Z,41.41
2016-08-28T12:31:18.075Z,41.41
2016-08-28T12:32:17.908Z,41.44
2016-08-28T12:33:17.942Z,41.43
2016-08-28T12:34:17.983Z,41.49
2016-08-28T12:35:18.073Z,41.49
2016-08-28T12:36:18.056Z,41.52
2016-08-28T12:37:18.094Z,41.53
2016-08-28T12:38:18.132Z,41.62
2016-08-28T12:39:18.171Z,41.7
2016-08-28T12:40:18.210Z,41.74
2016-08-28T12:41:18.246Z,41.7
2016-08-28T12:42:18.282Z,41.78
2016-08-28T12:43:18.321Z,41.72
2016-08-28T12:44:18.362Z,41.77
2016-08-28T12:45:18.399Z,41.8
2016-08-28T12:46:18.442Z,41.78
2016-08-28T12:47:18.476Z,41.87
2016-08-28T12:48:18.516Z,41.87
2016-08-28T12:49:18.547Z,41.78
2016-08-28T12:50:18.584Z,41.82
2016-08-28T12:51:18.626Z,41.74
2016-08-28T12:52:18.656Z,41.78
2016-08-28T12:53:18.699Z,41.75
2016-08-28T12:54:18.737Z,41.71
2016-08-28T12:55:18.898Z,41.74
2016-08-28T12:56:18.813Z,41.74